Zerbe, Pennsylvania
Current Conditions -  °F | °C
As of 10:58 AM on Saturday 22 Nov 2014 (Local Time) from KMUI Reporting Station
Clear Clear  
Wind Chill: 24°   Ceiling: Unl
Heat Index: 34°   Visibility: 10mi
Dew Point: 12°   Wind: 14mph
Humidity: 41%   Direction: 230°SW
Pressure: 30.41"   Gusts: NA
Location:  40.6079°N, 76.4334°W
Report Text: KMUI 221558Z AUTO 23012KT 10SM CLR 01/M11 A3041 RMK AO2 SLP307 T00091112 $
Loading
Personal Weather Stations






























Interactive Weather Map New forecast layout! Learn more

10-Day Weather Forecast

Advertisements
Track Severe Weather on mobile